WATO2: N. Canadian R., Watonga, OK

Data processed at Fri May 24 2019 23:50


All information presented herein is the property of the government of the United States of America and may be revised or deleted at any time without prior notice.
Dissemination of this information without the expressed written consent of the Public Affairs Office, Tulsa District U.S. Army Corps of Engineers is strictly prohibited.
These data are gathered electronically and, as presented, have not undergone any form of quality control. These data are not guaranteed to be valid or correct.
Go to home page.
Go to station list.
Go to home page.

Upstream stations:

Downstream station:
Previous Day
Next Day
Current Day
    
SHEF ID:       WATO2     North Canadian River blw Weavers
STATION TYPE:  
Regulating: Stage =    13.00, Flow =      983

               PRECIP     STAGE  RIV-FLOW  BAT-LOAD
                   in        ft       cfs      volt
              Ccp-Rev   Ccp-Rev   Ccp-Rev   Ccp-Rev
(US/Central)
05/24 00:00      0.00     10.12       365     12.65
05/24 01:00      0.00     10.07       356     12.65
05/24 02:00      0.00     10.03       349     12.65
05/24 03:00      0.00     10.01       346     12.65
05/24 04:00      0.00      9.98       341     12.57
05/24 05:00      0.00      9.95       336     12.57
05/24 06:00      0.23      9.94       334     12.57
05/24 07:00      0.66     10.00       344     12.57
05/24 08:00      0.81     10.33       402     12.57
05/24 09:00      0.00     10.75       481     12.57
05/24 10:00      0.00     11.87       703     12.65
05/24 11:00      0.00     12.99       981     12.89
05/24 12:00      0.00     13.31      1077     13.05
05/24 13:00      0.00     13.22      1047     13.13
05/24 14:00      0.00     12.89       954     13.21
05/24 15:00      0.01     12.51       856     12.97
05/24 16:00      0.00     12.15       768     13.29
05/24 17:00      0.00     11.89       708     13.21
05/24 18:00      0.00     11.71       669     12.81
05/24 19:00      1.60     12.04       742     12.73
05/24 20:00      0.42     13.34      1087     12.73
05/24 21:00      0.00     16.07      2336     12.65
05/24 22:00      0.15     16.74      2844     12.65
05/24 23:00      0.05     16.91      3021     12.65